Time;durP1;ratioP1;P1;durP2;ratioP2;P2;SDS_P1;SDS_P2;PMS_P1;PMS_P2;Temp;Humidity;BMP_temperature;BMP_pressure;BME280_temperature;BME280_humidity;BME280_pressure;Samples;Min_cycle;Max_cycle;Signal;HPM_P1;HPM_P2
2022/01/10 00:00:00;;;;;;;10.13;5.00;;;14.60;99.90;;;;;;4229514;28;20221;-74
2022/01/10 00:02:02;;;;;;;12.20;6.30;;;14.60;99.90;;;;;;4229063;28;20669;-75
2022/01/10 00:04:05;;;;;;;9.33;5.30;;;14.60;99.90;;;;;;4229390;28;20628;-75
2022/01/10 00:06:07;;;;;;;10.10;5.90;;;14.60;99.90;;;;;;4226035;28;20255;-75
2022/01/10 00:08:11;;;;;;;8.23;5.43;;;14.60;99.90;;;;;;4227684;28;20255;-75
2022/01/10 00:10:14;;;;;;;11.07;5.97;;;14.60;99.90;;;;;;4225856;28;20278;-75
2022/01/10 00:12:17;;;;;;;9.00;5.77;;;14.60;99.90;;;;;;4224895;28;20260;-75
2022/01/10 00:14:19;;;;;;;8.13;5.30;;;14.60;99.90;;;;;;4226084;28;20210;-75
2022/01/10 00:16:21;;;;;;;11.23;5.67;;;14.60;99.90;;;;;;4235209;27;20237;-75
2022/01/10 00:18:24;;;;;;;8.63;5.57;;;14.60;99.90;;;;;;4245771;27;20270;-74
2022/01/10 00:20:26;;;;;;;9.93;5.63;;;14.50;99.90;;;;;;4244730;27;20258;-74
2022/01/10 00:22:28;;;;;;;8.20;4.87;;;14.60;99.90;;;;;;4229254;28;20674;-75
2022/01/10 00:24:30;;;;;;;9.40;5.33;;;14.60;99.90;;;;;;4227747;28;20662;-75
2022/01/10 00:26:34;;;;;;;8.30;5.23;;;14.60;99.90;;;;;;4229168;28;20617;-74
2022/01/10 00:28:36;;;;;;;9.93;5.40;;;14.60;99.90;;;;;;4234319;27;20620;-75
2022/01/10 00:30:39;;;;;;;7.53;5.23;;;14.60;99.90;;;;;;4245432;27;20292;-75
2022/01/10 00:32:42;;;;;;;9.97;5.90;;;14.60;99.90;;;;;;4227326;28;20259;-75
2022/01/10 00:34:45;;;;;;;8.23;5.50;;;14.50;99.90;;;;;;4229159;28;20221;-75
2022/01/10 00:36:47;;;;;;;9.50;5.47;;;14.60;99.90;;;;;;4228861;28;20774;-74
2022/01/10 00:38:49;;;;;;;8.00;5.20;;;14.50;99.90;;;;;;4228768;28;20213;-75
2022/01/10 00:40:52;;;;;;;9.03;4.77;;;14.50;99.90;;;;;;4232472;27;20730;-75
2022/01/10 00:42:56;;;;;;;9.23;5.33;;;14.50;99.90;;;;;;4228658;28;20221;-75
2022/01/10 00:45:01;;;;;;;12.27;5.50;;;14.60;99.90;;;;;;4245581;27;20259;-75
2022/01/10 00:47:04;;;;;;;9.53;5.37;;;14.50;99.90;;;;;;4245870;27;20243;-74
2022/01/10 00:49:07;;;;;;;7.93;5.13;;;14.50;99.90;;;;;;4246290;27;20209;-75
2022/01/10 00:51:09;;;;;;;11.03;6.40;;;14.50;99.90;;;;;;4245723;27;20216;-75
2022/01/10 00:53:11;;;;;;;11.70;5.33;;;14.50;99.90;;;;;;4245552;27;20213;-74
2022/01/10 00:55:14;;;;;;;9.17;5.23;;;14.50;99.90;;;;;;4245255;27;20266;-74
2022/01/10 00:57:17;;;;;;;9.40;5.23;;;14.50;99.90;;;;;;4241233;27;20236;-75
2022/01/10 00:59:20;;;;;;;8.70;5.87;;;14.50;99.90;;;;;;4228795;28;20229;-74
2022/01/10 01:01:23;;;;;;;10.60;5.57;;;14.50;99.90;;;;;;4228806;28;20678;-74
2022/01/10 01:03:25;;;;;;;9.30;5.53;;;14.50;99.90;;;;;;4228865;28;20218;-75
2022/01/10 01:05:30;;;;;;;10.70;5.87;;;14.50;99.90;;;;;;4228664;28;20213;-75
2022/01/10 01:07:33;;;;;;;9.77;5.30;;;14.50;99.90;;;;;;4228600;28;20258;-75
2022/01/10 01:09:35;;;;;;;9.37;5.57;;;14.50;99.90;;;;;;4225862;28;20259;-75
2022/01/10 01:14:09;;;;;;;9.07;5.57;;;14.50;99.90;;;;;;4205299;28;20625;-75
2022/01/10 01:16:17;;;;;;;12.13;5.70;;;14.50;99.90;;;;;;4231199;28;20209;-75
2022/01/10 01:18:41;;;;;;;10.23;5.63;;;14.50;99.90;;;;;;4231707;28;20277;-75
2022/01/10 01:24:00;;;;;;;7.93;5.40;;;14.50;99.90;;;;;;4229595;28;20214;-75
2022/01/10 01:25:29;;;;;;;9.90;5.63;;;14.50;99.90;;;;;;4249451;27;20189;-74
2022/01/10 01:27:31;;;;;;;10.87;5.93;;;14.50;99.90;;;;;;4231789;28;20206;-75
2022/01/10 01:29:34;;;;;;;8.60;5.07;;;14.50;99.90;;;;;;4235765;27;20212;-74
2022/01/10 01:31:38;;;;;;;10.87;5.77;;;14.40;99.90;;;;;;4228597;28;20238;-74
2022/01/10 01:33:41;;;;;;;9.37;5.40;;;14.50;99.90;;;;;;4231935;28;20270;-75
2022/01/10 01:35:43;;;;;;;8.77;5.30;;;14.50;99.90;;;;;;4231693;27;20217;-75
2022/01/10 01:37:46;;;;;;;8.50;5.10;;;14.50;99.90;;;;;;4232146;28;20233;-75
2022/01/10 01:39:48;;;;;;;9.73;5.20;;;14.50;99.90;;;;;;4234769;27;20706;-74
2022/01/10 01:41:54;;;;;;;9.20;5.60;;;14.40;99.90;;;;;;4248653;27;20269;-75
2022/01/10 01:43:57;;;;;;;11.23;6.07;;;14.40;99.90;;;;;;4249162;27;20550;-75
2022/01/10 01:45:59;;;;;;;10.17;6.20;;;14.40;99.90;;;;;;4248366;27;20278;-75
2022/01/10 01:48:03;;;;;;;8.60;5.13;;;14.40;99.90;;;;;;4247799;27;20250;-74
2022/01/10 01:50:08;;;;;;;10.23;5.73;;;14.40;99.90;;;;;;4231129;28;20278;-74
2022/01/10 01:52:10;;;;;;;9.10;5.37;;;14.40;99.90;;;;;;4231188;28;20209;-75
2022/01/10 01:54:13;;;;;;;8.07;5.30;;;14.40;99.90;;;;;;4231658;28;20665;-75
2022/01/10 01:56:17;;;;;;;8.03;5.10;;;14.50;99.90;;;;;;4231550;28;20263;-74
2022/01/10 01:58:19;;;;;;;10.10;5.60;;;14.40;99.90;;;;;;4229596;28;20237;-74
2022/01/10 02:00:23;;;;;;;9.07;5.83;;;14.40;99.90;;;;;;4225942;27;20645;-75
2022/01/10 02:02:25;;;;;;;10.60;5.57;;;14.40;99.90;;;;;;4230810;28;20258;-75
2022/01/10 02:04:29;;;;;;;8.30;5.50;;;14.40;99.90;;;;;;4231704;28;20251;-75
2022/01/10 02:06:31;;;;;;;9.67;5.87;;;14.40;99.90;;;;;;4230048;28;20575;-75
2022/01/10 02:08:35;;;;;;;8.10;5.03;;;14.40;99.90;;;;;;4230983;28;20264;-75
2022/01/10 02:10:38;;;;;;;8.50;5.33;;;14.40;99.90;;;;;;4231294;28;20209;-75
2022/01/10 02:12:40;;;;;;;8.83;5.10;;;14.40;99.90;;;;;;4231012;28;20658;-75
2022/01/10 02:14:44;;;;;;;8.23;5.30;;;14.40;99.90;;;;;;4230753;28;20214;-75
2022/01/10 02:16:53;;;;;;;9.60;5.43;;;14.40;99.90;;;;;;4230675;28;20213;-75
2022/01/10 02:18:56;;;;;;;8.70;5.90;;;14.30;99.90;;;;;;4231074;28;20221;-75
2022/01/10 02:21:03;;;;;;;10.23;5.30;;;14.40;99.90;;;;;;4247505;27;20670;-74
2022/01/10 02:23:06;;;;;;;8.47;5.27;;;14.40;99.90;;;;;;4228985;28;20242;-75
2022/01/10 02:25:09;;;;;;;9.10;5.53;;;14.30;99.90;;;;;;4231116;27;20627;-75
2022/01/10 02:27:11;;;;;;;9.60;5.53;;;14.30;99.90;;;;;;4229931;28;20255;-75
2022/01/10 02:29:13;;;;;;;9.50;5.50;;;14.40;99.90;;;;;;4231059;28;20255;-75
2022/01/10 02:31:16;;;;;;;10.03;6.17;;;14.30;99.90;;;;;;4230358;28;20237;-75
2022/01/10 02:33:18;;;;;;;8.47;5.30;;;14.40;99.90;;;;;;4230573;28;20218;-75
2022/01/10 02:35:23;;;;;;;7.87;4.87;;;14.40;99.90;;;;;;4229220;28;20213;-75
2022/01/10 02:37:35;;;;;;;8.23;5.40;;;14.30;99.90;;;;;;4230192;28;20233;-74
2022/01/10 02:39:37;;;;;;;7.67;5.40;;;14.30;99.90;;;;;;4230829;27;20221;-74
2022/01/10 02:41:43;;;;;;;8.83;5.10;;;14.30;99.90;;;;;;4240855;27;20220;-75
2022/01/10 02:43:45;;;;;;;9.43;5.30;;;14.40;99.90;;;;;;4247713;27;20217;-75
2022/01/10 02:45:48;;;;;;;8.47;5.57;;;14.30;99.90;;;;;;4247573;27;20619;-75
2022/01/10 02:47:51;;;;;;;9.10;5.03;;;14.40;99.90;;;;;;4247354;27;20201;-75
2022/01/10 02:49:53;;;;;;;9.83;5.60;;;14.30;99.90;;;;;;4247575;27;20277;-75
2022/01/10 02:51:58;;;;;;;9.13;5.37;;;14.30;99.90;;;;;;4247620;27;20673;-74
2022/01/10 02:54:02;;;;;;;9.40;5.90;;;14.30;99.90;;;;;;4247683;27;20234;-75
2022/01/10 02:56:05;;;;;;;9.03;5.77;;;14.30;99.90;;;;;;4242506;27;20218;-74
2022/01/10 02:58:07;;;;;;;10.27;5.80;;;14.30;99.90;;;;;;4229765;28;20234;-75
2022/01/10 03:00:13;;;;;;;10.80;5.77;;;14.30;99.90;;;;;;4230779;28;20666;-74
2022/01/10 03:02:19;;;;;;;9.13;5.97;;;14.30;99.90;;;;;;4230120;28;20214;-75
2022/01/10 03:04:22;;;;;;;11.10;5.70;;;14.30;99.90;;;;;;4230528;28;20254;-75
2022/01/10 03:06:24;;;;;;;8.60;5.60;;;14.30;99.90;;;;;;4230238;28;20259;-75
2022/01/10 03:08:27;;;;;;;9.33;5.60;;;14.30;99.90;;;;;;4226513;28;20906;-75
2022/01/10 03:10:32;;;;;;;9.27;5.33;;;14.30;99.90;;;;;;4226461;28;20217;-75
2022/01/10 03:12:34;;;;;;;8.97;5.50;;;14.30;99.90;;;;;;4237738;27;20274;-75
2022/01/10 03:14:37;;;;;;;8.50;5.60;;;14.30;99.90;;;;;;4231814;27;20225;-75
2022/01/10 03:16:40;;;;;;;9.40;5.40;;;14.30;99.90;;;;;;4230354;28;20213;-75
2022/01/10 03:18:43;;;;;;;9.07;5.90;;;14.30;99.90;;;;;;4231399;27;20283;-75
2022/01/10 03:20:45;;;;;;;8.57;5.40;;;14.30;99.90;;;;;;4229378;28;20266;-75
2022/01/10 03:22:47;;;;;;;8.57;5.87;;;14.20;99.90;;;;;;4230224;28;20206;-75
2022/01/10 03:24:50;;;;;;;9.50;5.30;;;14.20;99.90;;;;;;4230227;28;20263;-75
2022/01/10 03:26:53;;;;;;;9.53;5.80;;;14.30;99.90;;;;;;4230252;28;20529;-75
2022/01/10 03:28:56;;;;;;;8.87;5.67;;;14.30;99.90;;;;;;4228054;28;20232;-75
2022/01/10 03:30:58;;;;;;;8.77;5.63;;;14.20;99.90;;;;;;4227775;28;20241;-75
2022/01/10 03:33:02;;;;;;;8.90;5.50;;;14.30;99.90;;;;;;4229472;28;20214;-74
2022/01/10 03:35:08;;;;;;;7.63;5.50;;;14.30;99.90;;;;;;4229788;28;20266;-75
2022/01/10 03:37:11;;;;;;;10.97;5.23;;;14.20;99.90;;;;;;4229050;28;20225;-75
2022/01/10 03:39:13;;;;;;;8.63;5.53;;;14.30;99.90;;;;;;4229681;28;20287;-75
2022/01/10 03:41:16;;;;;;;8.83;5.57;;;14.30;99.90;;;;;;4245334;27;20208;-75
2022/01/10 03:43:21;;;;;;;9.00;5.47;;;14.20;99.90;;;;;;4246260;27;20213;-75
2022/01/10 03:45:23;;;;;;;10.00;5.63;;;14.20;99.90;;;;;;4246772;27;20242;-75
2022/01/10 03:47:26;;;;;;;11.43;5.80;;;14.20;99.90;;;;;;4241116;27;20219;-75
2022/01/10 03:49:28;;;;;;;8.30;5.23;;;14.20;99.90;;;;;;4229683;27;20214;-75
2022/01/10 03:51:31;;;;;;;9.97;5.37;;;14.30;99.90;;;;;;4229987;28;20218;-75
2022/01/10 03:53:33;;;;;;;8.27;5.30;;;14.30;99.90;;;;;;4229421;28;20270;-75
2022/01/10 03:55:35;;;;;;;8.10;5.23;;;14.20;99.90;;;;;;4229268;28;20213;-75
2022/01/10 03:57:37;;;;;;;9.43;5.43;;;14.20;99.90;;;;;;4224387;28;20214;-75
2022/01/10 03:59:41;;;;;;;7.70;5.43;;;14.20;99.90;;;;;;4229202;28;20739;-75
2022/01/10 04:01:44;;;;;;;9.87;5.93;;;14.20;99.90;;;;;;4229384;28;20206;-74
2022/01/10 04:03:46;;;;;;;8.73;5.33;;;14.20;99.90;;;;;;4229214;28;20275;-75
2022/01/10 04:05:48;;;;;;;9.87;5.40;;;14.20;99.90;;;;;;4226417;28;20666;-75
2022/01/10 04:07:51;;;;;;;7.33;4.70;;;14.20;99.90;;;;;;4227792;28;20214;-75
2022/01/10 04:09:53;;;;;;;10.23;5.73;;;14.20;99.90;;;;;;4226920;28;20213;-74
2022/01/10 04:11:55;;;;;;;8.57;5.13;;;14.20;99.90;;;;;;4240140;27;20217;-75
2022/01/10 04:13:58;;;;;;;9.00;5.30;;;14.20;99.90;;;;;;4229220;28;20280;-75
2022/01/10 04:16:02;;;;;;;7.33;4.70;;;14.20;99.90;;;;;;4229341;28;20218;-74
2022/01/10 04:18:05;;;;;;;12.77;5.50;;;14.20;99.90;;;;;;4229227;28;20218;-74
2022/01/10 04:20:09;;;;;;;8.47;5.43;;;14.20;99.90;;;;;;4229281;28;20225;-74
2022/01/10 04:22:12;;;;;;;7.83;5.40;;;14.20;99.90;;;;;;4226570;28;20666;-74
2022/01/10 04:24:15;;;;;;;9.30;5.43;;;14.20;99.90;;;;;;4229405;28;20270;-74
2022/01/10 04:26:18;;;;;;;8.60;5.90;;;14.20;99.90;;;;;;4229004;28;20645;-74
2022/01/10 04:28:20;;;;;;;7.50;5.00;;;14.20;99.90;;;;;;4245521;27;20619;-74
2022/01/10 04:30:23;;;;;;;8.57;5.60;;;14.20;99.90;;;;;;4245398;27;20221;-74
2022/01/10 04:32:29;;;;;;;9.37;5.07;;;14.20;99.90;;;;;;4246103;27;20258;-73
2022/01/10 04:34:32;;;;;;;8.93;5.20;;;14.20;99.90;;;;;;4245797;27;20205;-74
2022/01/10 04:36:34;;;;;;;9.40;5.33;;;14.20;99.90;;;;;;4245874;27;20209;-74
2022/01/10 04:38:37;;;;;;;8.23;4.93;;;14.20;99.90;;;;;;4238130;27;20752;-73
2022/01/10 04:40:40;;;;;;;8.23;5.60;;;14.10;99.90;;;;;;4229337;28;20614;-74
2022/01/10 04:42:42;;;;;;;8.33;5.13;;;14.10;99.90;;;;;;4228958;28;20210;-74
2022/01/10 04:44:44;;;;;;;7.97;4.90;;;14.20;99.90;;;;;;4229284;28;20623;-74
2022/01/10 04:46:47;;;;;;;7.20;4.90;;;14.10;99.90;;;;;;4228909;28;20218;-73
2022/01/10 04:48:51;;;;;;;7.07;5.27;;;14.10;99.90;;;;;;4227672;28;20306;-73
2022/01/10 04:53:21;;;;;;;8.23;5.17;;;14.10;99.90;;;;;;4203924;28;20259;-73
2022/01/10 04:55:24;;;;;;;11.50;5.83;;;14.10;99.90;;;;;;4225552;28;20214;-74
2022/01/10 04:57:26;;;;;;;9.83;5.77;;;14.10;99.90;;;;;;4223100;28;20286;-74
2022/01/10 04:59:28;;;;;;;9.07;5.57;;;14.10;99.90;;;;;;4226438;28;20559;-73
2022/01/10 05:01:31;;;;;;;7.97;5.07;;;14.10;99.90;;;;;;4228612;28;20282;-74
2022/01/10 05:03:33;;;;;;;10.10;5.57;;;14.10;99.90;;;;;;4234110;28;20281;-74
2022/01/10 05:05:37;;;;;;;7.63;5.50;;;14.10;99.90;;;;;;4229946;28;20218;-73
2022/01/10 05:07:40;;;;;;;7.90;5.40;;;14.10;99.90;;;;;;4227019;28;20254;-73
2022/01/10 05:09:42;;;;;;;7.90;5.33;;;14.10;99.90;;;;;;4225910;28;20258;-74
2022/01/10 05:11:45;;;;;;;7.50;5.20;;;14.10;99.90;;;;;;4228616;28;20715;-74
2022/01/10 05:13:47;;;;;;;8.43;5.30;;;14.10;99.90;;;;;;4225875;28;20275;-74
2022/01/10 05:15:50;;;;;;;9.27;5.50;;;14.10;99.90;;;;;;4228690;28;20213;-74
2022/01/10 05:17:53;;;;;;;9.63;5.77;;;14.10;99.90;;;;;;4228568;28;20213;-73
2022/01/10 05:19:55;;;;;;;8.53;5.30;;;14.10;99.90;;;;;;4228618;28;20624;-74
2022/01/10 05:21:59;;;;;;;8.63;5.20;;;14.10;99.90;;;;;;4228269;28;20218;-73
2022/01/10 05:24:01;;;;;;;7.83;5.13;;;14.10;99.90;;;;;;4228532;28;20209;-73
2022/01/10 05:26:06;;;;;;;9.77;5.70;;;14.10;99.90;;;;;;4228536;28;20262;-74
2022/01/10 05:28:10;;;;;;;6.67;5.07;;;14.10;99.90;;;;;;4228482;28;20259;-74
2022/01/10 05:30:12;;;;;;;8.67;5.80;;;14.10;99.90;;;;;;4225964;28;20279;-73
2022/01/10 05:32:15;;;;;;;9.23;5.40;;;14.10;99.90;;;;;;4228814;28;20229;-74
2022/01/10 05:34:17;;;;;;;7.50;4.43;;;14.10;99.90;;;;;;4228133;28;20282;-74
2022/01/10 05:36:19;;;;;;;8.40;5.17;;;14.10;99.90;;;;;;4228574;28;20263;-73
2022/01/10 05:38:23;;;;;;;7.60;5.13;;;14.10;99.90;;;;;;4245484;28;20733;-74
2022/01/10 05:40:25;;;;;;;8.80;5.50;;;14.00;99.90;;;;;;4236414;28;20238;-73
2022/01/10 05:42:28;;;;;;;8.67;5.07;;;14.00;99.90;;;;;;4235958;28;20220;-73
2022/01/10 05:44:30;;;;;;;10.03;5.83;;;14.10;99.90;;;;;;4229080;28;20213;-74
2022/01/10 05:46:34;;;;;;;8.97;5.43;;;14.00;99.90;;;;;;4225050;28;20259;-74
2022/01/10 05:48:40;;;;;;;7.23;4.90;;;14.00;99.90;;;;;;4228388;28;20267;-74
2022/01/10 05:50:44;;;;;;;9.37;5.20;;;14.00;99.90;;;;;;4228254;28;20218;-74
2022/01/10 05:52:47;;;;;;;8.17;5.63;;;14.00;99.90;;;;;;4228442;28;20225;-74
2022/01/10 05:54:50;;;;;;;10.73;6.00;;;14.10;99.90;;;;;;4225900;28;20621;-74
2022/01/10 05:56:53;;;;;;;9.53;5.73;;;14.00;99.90;;;;;;4231355;28;20213;-74
2022/01/10 05:58:55;;;;;;;8.00;5.43;;;14.00;99.90;;;;;;4238358;28;20263;-74
2022/01/10 06:00:57;;;;;;;7.80;5.27;;;14.00;99.90;;;;;;4231360;28;20258;-74
2022/01/10 06:02:59;;;;;;;7.27;4.63;;;14.10;99.90;;;;;;4231600;28;20720;-74
2022/01/10 06:05:08;;;;;;;9.00;5.40;;;14.10;99.90;;;;;;4228281;28;20259;-73
2022/01/10 06:07:12;;;;;;;7.67;4.87;;;14.10;99.90;;;;;;4230981;28;20270;-73
2022/01/10 06:09:15;;;;;;;8.70;5.37;;;14.10;99.90;;;;;;4230058;28;20243;-73
2022/01/10 06:11:18;;;;;;;8.50;5.17;;;14.10;99.90;;;;;;4231001;28;20214;-73
2022/01/10 06:13:21;;;;;;;8.13;5.23;;;14.20;99.90;;;;;;4231017;28;20612;-73
2022/01/10 06:15:24;;;;;;;8.53;4.93;;;14.20;99.90;;;;;;4231247;28;20288;-73
2022/01/10 06:17:26;;;;;;;9.17;5.23;;;14.20;99.90;;;;;;4237923;27;20666;-75
2022/01/10 06:19:28;;;;;;;8.13;4.77;;;14.20;99.90;;;;;;4248181;27;20286;-73
2022/01/10 06:21:32;;;;;;;7.67;4.97;;;14.20;99.90;;;;;;4234091;27;20239;-73
2022/01/10 06:23:35;;;;;;;8.07;5.40;;;14.30;99.90;;;;;;4230682;28;20225;-73
2022/01/10 06:25:37;;;;;;;9.40;5.40;;;14.30;99.90;;;;;;4230675;28;20623;-73
2022/01/10 06:27:41;;;;;;;6.80;5.27;;;14.30;99.90;;;;;;4231206;28;20214;-74
2022/01/10 06:29:43;;;;;;;8.27;5.20;;;14.30;99.90;;;;;;4231189;28;20258;-73
2022/01/10 06:31:46;;;;;;;8.07;5.60;;;14.40;99.90;;;;;;4230667;28;20709;-74
2022/01/10 06:33:48;;;;;;;7.47;5.13;;;14.30;99.90;;;;;;4230734;28;20210;-73
2022/01/10 06:35:50;;;;;;;9.53;5.83;;;14.40;99.90;;;;;;4230879;28;20270;-73
2022/01/10 06:37:54;;;;;;;7.07;5.13;;;14.40;99.90;;;;;;4229556;28;20668;-73
2022/01/10 06:39:56;;;;;;;7.90;5.27;;;14.40;99.90;;;;;;4234895;27;20274;-73
2022/01/10 06:41:59;;;;;;;8.23;5.30;;;14.40;99.90;;;;;;4247553;27;20221;-73
2022/01/10 06:44:03;;;;;;;8.10;5.47;;;14.50;99.90;;;;;;4247805;27;20213;-73
2022/01/10 06:46:05;;;;;;;9.60;6.00;;;14.50;99.90;;;;;;4228549;27;20262;-73
2022/01/10 06:48:08;;;;;;;8.07;5.90;;;14.50;99.90;;;;;;4229414;28;20213;-74
2022/01/10 06:50:11;;;;;;;7.87;5.77;;;14.50;99.90;;;;;;4228186;28;20210;-73
2022/01/10 06:52:13;;;;;;;8.37;5.73;;;14.50;99.90;;;;;;4230405;28;20209;-73
2022/01/10 06:54:16;;;;;;;9.53;6.00;;;14.50;99.90;;;;;;4228836;27;20266;-73
2022/01/10 06:56:18;;;;;;;9.40;5.83;;;14.50;99.90;;;;;;4230662;28;20222;-73
2022/01/10 06:58:21;;;;;;;7.43;5.60;;;14.60;99.90;;;;;;4230751;28;20607;-73
2022/01/10 07:00:29;;;;;;;9.37;6.10;;;14.60;99.90;;;;;;4230063;28;20233;-73
2022/01/10 07:02:31;;;;;;;9.13;5.87;;;14.60;99.90;;;;;;4229365;28;20267;-73
2022/01/10 07:04:39;;;;;;;9.13;5.87;;;14.60;99.90;;;;;;4230272;28;20218;-73
2022/01/10 07:06:42;;;;;;;10.33;6.17;;;14.60;99.90;;;;;;4229859;28;20669;-73
2022/01/10 07:08:44;;;;;;;8.67;5.53;;;14.60;99.90;;;;;;4229939;28;20282;-73
2022/01/10 07:10:46;;;;;;;8.23;5.60;;;14.60;99.90;;;;;;4229252;28;20209;-73
2022/01/10 07:12:49;;;;;;;9.63;5.80;;;14.60;99.90;;;;;;4228203;28;20278;-73
2022/01/10 07:14:51;;;;;;;8.17;5.80;;;14.60;99.90;;;;;;4230335;28;20217;-73
2022/01/10 07:16:55;;;;;;;7.63;5.60;;;14.60;99.90;;;;;;4230621;28;20553;-73
2022/01/10 07:18:57;;;;;;;9.13;6.00;;;14.70;99.90;;;;;;4230410;28;20209;-73
2022/01/10 07:21:00;;;;;;;9.87;6.77;;;14.70;99.90;;;;;;4231447;27;20236;-73
2022/01/10 07:23:02;;;;;;;7.60;5.70;;;14.70;99.90;;;;;;4247539;27;20209;-73
2022/01/10 07:25:05;;;;;;;8.17;6.70;;;14.70;99.90;;;;;;4246805;27;20212;-73
2022/01/10 07:27:08;;;;;;;9.50;6.33;;;14.70;99.90;;;;;;4246585;27;20629;-73
2022/01/10 07:29:12;;;;;;;8.60;6.23;;;14.70;99.90;;;;;;4235450;27;20245;-73
2022/01/10 07:31:15;;;;;;;8.07;6.03;;;14.70;99.90;;;;;;4229867;27;20271;-74
2022/01/10 07:33:18;;;;;;;9.17;5.97;;;14.70;99.90;;;;;;4229854;28;20214;-73
2022/01/10 07:35:21;;;;;;;8.67;6.00;;;14.70;99.90;;;;;;4229961;28;21730;-73
2022/01/10 07:37:23;;;;;;;8.00;5.93;;;14.70;99.90;;;;;;4229598;28;20217;-75
2022/01/10 07:39:25;;;;;;;8.77;6.07;;;14.70;99.90;;;;;;4229995;27;20266;-74
2022/01/10 07:41:28;;;;;;;8.63;6.03;;;14.80;99.90;;;;;;4246672;27;20258;-73
2022/01/10 07:43:30;;;;;;;8.97;6.50;;;14.80;99.90;;;;;;4240091;27;20218;-74
2022/01/10 07:45:33;;;;;;;7.43;5.73;;;14.80;99.90;;;;;;4227542;28;20214;-73
2022/01/10 07:47:36;;;;;;;8.30;6.10;;;14.80;99.90;;;;;;4242608;27;20217;-73
2022/01/10 07:49:40;;;;;;;9.10;6.13;;;14.80;99.90;;;;;;4247825;27;20212;-73
2022/01/10 07:51:42;;;;;;;8.70;5.67;;;14.80;99.90;;;;;;4247488;27;20213;-73
2022/01/10 07:53:45;;;;;;;9.23;6.20;;;14.80;99.90;;;;;;4225722;27;20222;-73
2022/01/10 07:55:47;;;;;;;8.37;5.93;;;14.80;99.90;;;;;;4214447;28;20211;-75
2022/01/10 07:57:49;;;;;;;9.03;5.97;;;14.80;99.90;;;;;;4214125;28;20549;-73
2022/01/10 07:59:52;;;;;;;7.33;5.10;;;14.90;99.90;;;;;;4213881;28;20241;-73
2022/01/10 08:01:54;;;;;;;9.37;7.70;;;14.80;99.90;;;;;;4216642;28;20214;-74
2022/01/10 08:03:56;;;;;;;7.43;6.17;;;14.40;99.90;;;;;;4221244;28;20209;-74
2022/01/10 08:06:00;;;;;;;9.17;6.40;;;13.80;99.90;;;;;;4225683;28;20235;-75
2022/01/10 08:08:03;;;;;;;11.37;5.93;;;14.00;99.90;;;;;;4224268;27;20318;-77
2022/01/10 08:10:07;;;;;;;10.33;6.10;;;14.20;99.90;;;;;;4223345;28;20214;-76
2022/01/10 08:12:10;;;;;;;10.63;6.50;;;14.50;99.90;;;;;;4217488;28;20229;-80
2022/01/10 08:14:16;;;;;;;8.27;5.17;;;14.80;99.90;;;;;;4227336;28;20218;-78
2022/01/10 08:16:18;;;;;;;9.33;5.77;;;15.00;99.90;;;;;;4224012;28;20254;-79
2022/01/10 08:18:20;;;;;;;8.50;5.80;;;15.20;99.90;;;;;;4224037;28;20702;-78
2022/01/10 08:20:23;;;;;;;6.35;5.20;;;15.30;99.90;;;;;;4225475;28;20251;-78
2022/01/10 08:22:26;;;;;;;6.32;4.88;;;15.50;99.90;;;;;;4222733;28;20217;-77
2022/01/10 08:24:29;;;;;;;9.15;5.22;;;15.60;99.90;;;;;;4221194;28;20278;-76
2022/01/10 08:26:32;;;;;;;7.43;5.18;;;15.60;99.90;;;;;;4224744;27;20271;-76
2022/01/10 08:28:34;;;;;;;6.40;5.10;;;15.80;99.90;;;;;;4221339;27;20263;-76
2022/01/10 08:30:36;;;;;;;11.47;4.83;;;16.00;99.90;;;;;;4225206;28;20283;-77
2022/01/10 08:32:39;;;;;;;6.82;5.13;;;16.20;99.90;;;;;;4225189;28;20256;-76
2022/01/10 08:34:41;;;;;;;6.25;5.00;;;16.30;99.90;;;;;;4226252;27;20271;-76
2022/01/10 08:36:43;;;;;;;8.20;5.45;;;16.50;99.90;;;;;;4224937;28;20213;-76
2022/01/10 08:38:47;;;;;;;6.78;5.28;;;16.60;99.90;;;;;;4224672;28;20276;-77
2022/01/10 08:40:49;;;;;;;6.07;5.00;;;16.70;99.90;;;;;;4226516;27;20233;-76
2022/01/10 08:42:52;;;;;;;6.10;4.93;;;16.80;99.90;;;;;;4225404;28;20610;-76
2022/01/10 08:44:54;;;;;;;6.97;4.30;;;16.80;99.90;;;;;;4224913;27;20609;-76
2022/01/10 08:46:57;;;;;;;6.03;4.90;;;16.90;99.90;;;;;;4223664;28;20218;-76
2022/01/10 08:49:00;;;;;;;5.50;4.88;;;17.00;99.90;;;;;;4226587;28;20225;-75
2022/01/10 08:51:02;;;;;;;6.13;4.82;;;17.10;99.90;;;;;;4221653;27;20247;-76
2022/01/10 08:53:07;;;;;;;7.38;4.43;;;17.20;99.90;;;;;;4220374;28;20248;-75
2022/01/10 08:55:11;;;;;;;5.15;4.38;;;17.30;99.90;;;;;;4222526;28;20251;-75
2022/01/10 08:57:13;;;;;;;6.57;4.50;;;17.40;99.90;;;;;;4223460;28;20618;-77
2022/01/10 08:59:16;;;;;;;5.85;5.05;;;17.50;99.90;;;;;;4226073;28;20213;-76
2022/01/10 09:01:19;;;;;;;6.18;4.90;;;17.50;99.90;;;;;;4223973;27;20237;-76
2022/01/10 09:03:24;;;;;;;6.30;4.18;;;17.40;99.90;;;;;;4222707;28;20213;-76
2022/01/10 09:05:26;;;;;;;13.75;4.88;;;17.50;99.90;;;;;;4218250;28;20302;-77
2022/01/10 09:07:28;;;;;;;12.65;4.72;;;17.60;99.90;;;;;;4224260;28;20267;-77
2022/01/10 09:09:31;;;;;;;8.95;4.30;;;17.60;99.90;;;;;;4226756;28;20255;-76
2022/01/10 09:11:34;;;;;;;27.27;5.32;;;17.80;99.90;;;;;;4223927;28;20213;-79
2022/01/10 09:13:37;;;;;;;17.13;5.25;;;17.80;99.90;;;;;;4223643;28;20210;-77
2022/01/10 09:15:39;;;;;;;11.30;4.40;;;17.90;99.90;;;;;;4224236;28;20256;-75
2022/01/10 09:17:42;;;;;;;22.67;5.80;;;17.90;99.90;;;;;;4220495;28;20266;-76
2022/01/10 09:19:44;;;;;;;12.98;4.95;;;18.00;99.90;;;;;;4223525;28;20723;-77
2022/01/10 09:21:47;;;;;;;11.45;4.40;;;17.90;99.90;;;;;;4224352;28;21024;-74
2022/01/10 09:23:49;;;;;;;8.35;4.25;;;18.00;99.90;;;;;;4224730;28;20217;-74
2022/01/10 09:25:52;;;;;;;7.82;4.35;;;18.00;99.90;;;;;;4227221;28;20206;-74
2022/01/10 09:27:55;;;;;;;5.80;4.10;;;18.10;99.90;;;;;;4228766;28;20213;-74
2022/01/10 09:29:57;;;;;;;7.63;4.32;;;18.20;99.90;;;;;;4228067;28;20266;-75
2022/01/10 09:32:00;;;;;;;8.70;4.75;;;18.30;99.90;;;;;;4223346;28;20225;-75
2022/01/10 09:34:02;;;;;;;12.65;5.28;;;18.20;99.90;;;;;;4221130;28;20213;-73
2022/01/10 09:36:05;;;;;;;9.23;4.47;;;18.00;99.90;;;;;;4227266;28;20259;-75
2022/01/10 09:38:08;;;;;;;8.57;4.70;;;18.20;99.90;;;;;;4225681;28;20271;-79
2022/01/10 09:40:10;;;;;;;8.02;5.53;;;18.00;99.90;;;;;;4222625;27;20267;-78
2022/01/10 09:42:13;;;;;;;18.83;4.90;;;18.20;99.90;;;;;;4225339;28;20644;-74
2022/01/10 09:44:17;;;;;;;15.18;4.68;;;18.20;99.90;;;;;;4226892;28;20218;-76
2022/01/10 09:46:20;;;;;;;29.50;6.78;;;18.50;99.90;;;;;;4223344;28;20666;-75
2022/01/10 09:48:23;;;;;;;12.93;4.75;;;18.40;99.90;;;;;;4229738;27;20274;-76
2022/01/10 09:50:25;;;;;;;19.17;7.82;;;18.50;99.90;;;;;;4226920;28;20214;-76
2022/01/10 09:52:29;;;;;;;13.23;8.52;;;17.30;99.90;;;;;;4224891;28;20594;-73
2022/01/10 09:54:31;;;;;;;16.40;7.22;;;17.00;99.90;;;;;;4224363;28;20678;-73
2022/01/10 09:56:34;;;;;;;14.98;6.00;;;17.40;99.90;;;;;;4226577;28;20225;-72
2022/01/10 09:58:36;;;;;;;10.70;5.95;;;17.70;99.90;;;;;;4224730;28;20258;-72
2022/01/10 10:00:40;;;;;;;10.38;5.88;;;18.00;99.90;;;;;;4223636;28;20216;-71
2022/01/10 10:02:42;;;;;;;12.95;6.38;;;18.00;99.90;;;;;;4225637;28;20689;-73
2022/01/10 10:04:45;;;;;;;9.63;5.10;;;18.20;99.90;;;;;;4227338;28;20238;-72
2022/01/10 10:06:48;;;;;;;14.18;5.40;;;18.20;99.90;;;;;;4231058;27;20973;-72
2022/01/10 10:08:52;;;;;;;10.13;5.28;;;18.30;99.90;;;;;;4227209;28;21064;-72
2022/01/10 10:10:55;;;;;;;11.32;4.75;;;18.30;99.90;;;;;;4225299;27;20325;-72
2022/01/10 10:12:57;;;;;;;9.35;5.00;;;18.30;99.90;;;;;;4226408;28;20651;-71
2022/01/10 10:15:01;;;;;;;8.32;4.00;;;18.40;99.90;;;;;;4229931;28;20214;-72
2022/01/10 10:17:12;;;;;;;7.95;4.13;;;18.50;99.90;;;;;;4223522;28;20210;-72
2022/01/10 10:19:15;;;;;;;9.57;4.20;;;18.50;99.90;;;;;;4228299;28;20732;-71
2022/01/10 10:21:20;;;;;;;5.90;4.03;;;18.60;99.90;;;;;;4230912;28;20620;-71
2022/01/10 10:23:23;;;;;;;12.90;4.65;;;18.60;99.90;;;;;;4225006;27;20894;-72
2022/01/10 10:25:25;;;;;;;6.57;4.75;;;18.60;99.90;;;;;;4228022;28;20625;-72
2022/01/10 10:27:28;;;;;;;6.80;4.13;;;18.60;99.90;;;;;;4222112;28;20263;-72
2022/01/10 10:29:30;;;;;;;7.20;4.10;;;18.60;99.90;;;;;;4223184;28;20618;-72
2022/01/10 10:31:34;;;;;;;6.43;4.00;;;18.60;99.90;;;;;;4223575;27;20717;-75
2022/01/10 10:33:48;;;;;;;7.70;3.95;;;18.70;99.90;;;;;;4227227;28;20214;-72
2022/01/10 10:35:56;;;;;;;7.53;4.05;;;18.80;99.90;;;;;;4219973;28;20258;-70
2022/01/10 10:38:03;;;;;;;5.78;4.00;;;18.90;99.90;;;;;;4222335;28;20538;-72
2022/01/10 10:40:09;;;;;;;6.22;3.95;;;18.90;99.90;;;;;;4230525;27;20266;-71
2022/01/10 10:42:13;;;;;;;8.30;4.20;;;18.80;99.90;;;;;;4221557;28;20237;-71
2022/01/10 10:44:21;;;;;;;9.48;4.50;;;18.80;99.90;;;;;;4229381;27;20214;-72
2022/01/10 10:46:27;;;;;;;6.60;4.20;;;18.80;99.90;;;;;;4225307;28;20280;-72